Time;durP1;ratioP1;P1;durP2;ratioP2;P2;SDS_P1;SDS_P2;PMS_P1;PMS_P2;Temp;Humidity;BMP_temperature;BMP_pressure;BME280_temperature;BME280_humidity;BME280_pressure;Samples;Min_cycle;Max_cycle;Signal;HPM_P1;HPM_P2
2021/11/23 00:00:16;;;;;;;10.95;7.95;;;4.60;82.00;;;;;;5085353;28;20028;-74
2021/11/23 00:02:42;;;;;;;11.32;7.45;;;4.60;82.70;;;;;;5074850;28;20036;-74
2021/11/23 00:05:10;;;;;;;8.25;6.50;;;4.60;82.20;;;;;;5075327;28;20396;-74
2021/11/23 00:07:36;;;;;;;8.15;6.57;;;4.60;82.40;;;;;;5082120;28;20089;-74
2021/11/23 00:10:04;;;;;;;8.45;6.53;;;4.60;82.50;;;;;;5084143;28;20056;-74
2021/11/23 00:12:30;;;;;;;8.45;6.57;;;4.60;82.50;;;;;;5075236;28;20032;-73
2021/11/23 00:14:56;;;;;;;8.30;5.78;;;4.60;82.50;;;;;;5079780;28;21769;-75
2021/11/23 00:17:22;;;;;;;8.77;6.25;;;4.60;82.60;;;;;;5081674;28;20467;-75
2021/11/23 00:19:47;;;;;;;7.88;5.82;;;4.60;82.60;;;;;;5083786;28;20031;-74
2021/11/23 00:22:13;;;;;;;9.10;6.00;;;4.60;82.70;;;;;;5084397;28;20035;-74
2021/11/23 00:24:39;;;;;;;9.27;6.18;;;4.60;82.60;;;;;;5081478;28;20032;-74
2021/11/23 00:27:06;;;;;;;8.20;6.70;;;4.60;82.70;;;;;;5084868;28;20024;-74
2021/11/23 00:29:32;;;;;;;8.90;7.20;;;4.60;82.60;;;;;;5080452;28;20055;-74
2021/11/23 00:31:58;;;;;;;10.30;7.50;;;4.60;82.50;;;;;;5086476;28;20469;-74
2021/11/23 00:34:24;;;;;;;8.85;6.57;;;4.60;82.50;;;;;;5074449;28;20024;-75
2021/11/23 00:36:50;;;;;;;10.07;7.65;;;4.60;82.40;;;;;;5074969;28;20024;-75
2021/11/23 00:39:16;;;;;;;9.40;6.90;;;4.60;82.40;;;;;;5083936;28;20022;-75
2021/11/23 00:41:47;;;;;;;15.43;8.93;;;4.60;82.40;;;;;;5094804;28;20080;-74
2021/11/23 00:44:17;;;;;;;14.43;8.57;;;4.60;82.40;;;;;;5088026;28;20029;-74
2021/11/23 00:46:44;;;;;;;10.93;7.60;;;4.60;82.40;;;;;;5090663;28;20077;-74
2021/11/23 00:49:11;;;;;;;10.38;7.55;;;4.60;82.30;;;;;;5089992;28;20027;-75
2021/11/23 00:51:37;;;;;;;12.80;8.20;;;4.60;82.30;;;;;;5086130;28;20036;-74
2021/11/23 00:54:03;;;;;;;9.73;7.07;;;4.60;82.30;;;;;;5080754;28;20487;-74
2021/11/23 00:56:29;;;;;;;9.20;7.18;;;4.60;82.30;;;;;;5081371;28;20104;-74
2021/11/23 00:58:55;;;;;;;9.40;6.72;;;4.60;82.30;;;;;;5081066;28;20028;-74
2021/11/23 01:01:21;;;;;;;8.90;6.38;;;4.60;82.30;;;;;;5090090;28;20486;-74
2021/11/23 01:03:46;;;;;;;8.23;6.13;;;4.60;82.20;;;;;;5084497;28;20050;-74
2021/11/23 01:06:12;;;;;;;8.55;6.28;;;4.60;82.10;;;;;;5082569;28;20058;-74
2021/11/23 01:08:41;;;;;;;8.05;5.80;;;4.60;82.00;;;;;;5080851;28;20029;-74
2021/11/23 01:11:09;;;;;;;6.68;5.25;;;4.60;81.90;;;;;;5086785;28;20032;-74
2021/11/23 01:13:36;;;;;;;7.40;5.93;;;4.60;81.70;;;;;;5084518;28;20589;-74
2021/11/23 01:16:02;;;;;;;7.88;6.00;;;4.60;81.50;;;;;;5080768;28;20493;-75
2021/11/23 01:18:27;;;;;;;7.50;5.20;;;4.60;81.50;;;;;;5081334;28;20045;-74
2021/11/23 01:20:53;;;;;;;7.65;5.38;;;4.60;81.20;;;;;;5083409;28;20060;-75
2021/11/23 01:23:20;;;;;;;6.53;5.00;;;4.50;80.90;;;;;;5075861;28;20408;-74
2021/11/23 01:25:46;;;;;;;6.80;4.38;;;4.50;80.90;;;;;;5084931;28;20024;-76
2021/11/23 01:28:12;;;;;;;6.22;4.72;;;4.50;80.70;;;;;;5085120;28;20481;-74
2021/11/23 01:30:39;;;;;;;6.28;4.40;;;4.40;80.30;;;;;;5090369;28;20381;-74
2021/11/23 01:33:05;;;;;;;5.35;4.40;;;4.40;80.10;;;;;;5076630;28;20115;-74
2021/11/23 01:35:30;;;;;;;5.93;4.53;;;4.40;80.00;;;;;;5090504;28;20120;-76
2021/11/23 01:37:56;;;;;;;5.63;4.20;;;4.40;79.90;;;;;;5077198;28;20036;-74
2021/11/23 01:40:22;;;;;;;5.15;4.38;;;4.40;79.70;;;;;;5079614;28;20031;-74
2021/11/23 01:42:49;;;;;;;6.50;4.65;;;4.30;79.40;;;;;;5082075;28;20046;-74
2021/11/23 01:45:15;;;;;;;6.20;4.90;;;4.30;79.40;;;;;;5094205;28;20052;-74
2021/11/23 01:47:41;;;;;;;5.97;4.65;;;4.30;79.20;;;;;;5082968;28;20080;-74
2021/11/23 01:50:09;;;;;;;5.35;4.20;;;4.30;79.10;;;;;;5085616;28;20040;-73
2021/11/23 01:52:35;;;;;;;5.35;4.13;;;4.20;79.20;;;;;;5087668;28;20058;-74
2021/11/23 01:55:02;;;;;;;7.18;4.75;;;4.20;79.20;;;;;;5084623;28;20442;-74
2021/11/23 01:57:28;;;;;;;5.65;4.32;;;4.20;79.30;;;;;;5084412;28;20028;-75
2021/11/23 01:59:54;;;;;;;5.97;4.30;;;4.20;79.30;;;;;;5085530;28;20355;-74
2021/11/23 02:02:20;;;;;;;5.75;4.40;;;4.20;79.30;;;;;;5082846;28;20107;-75
2021/11/23 02:04:45;;;;;;;7.45;4.45;;;4.20;79.20;;;;;;5082462;28;20071;-74
2021/11/23 02:07:13;;;;;;;6.55;4.47;;;4.20;79.10;;;;;;5082488;28;20032;-73
2021/11/23 02:09:39;;;;;;;6.72;4.97;;;4.10;78.90;;;;;;5065858;28;20036;-74
2021/11/23 02:12:06;;;;;;;20.05;11.10;;;4.10;79.00;;;;;;5082291;28;20482;-74
2021/11/23 02:14:32;;;;;;;11.18;7.68;;;4.00;79.10;;;;;;5081065;28;20028;-74
2021/11/23 02:16:58;;;;;;;15.02;8.30;;;4.00;79.10;;;;;;5077068;28;20078;-74
2021/11/23 02:19:23;;;;;;;19.08;8.88;;;4.00;79.20;;;;;;5087247;28;20032;-74
2021/11/23 02:21:49;;;;;;;12.68;7.78;;;4.00;79.20;;;;;;5085000;28;20035;-74
2021/11/23 02:24:15;;;;;;;12.15;8.00;;;3.90;79.20;;;;;;5083704;28;20036;-74
2021/11/23 02:26:41;;;;;;;8.88;6.35;;;4.00;79.30;;;;;;5090867;28;20034;-74
2021/11/23 02:29:07;;;;;;;10.10;6.45;;;3.90;79.40;;;;;;5060802;28;20454;-75
2021/11/23 02:31:33;;;;;;;8.88;5.97;;;3.90;79.60;;;;;;5059517;28;20024;-74
2021/11/23 02:33:59;;;;;;;9.88;7.18;;;3.90;79.70;;;;;;5090525;28;20374;-75
2021/11/23 02:36:25;;;;;;;10.20;8.07;;;3.90;79.80;;;;;;5086835;28;20039;-74
2021/11/23 02:38:52;;;;;;;10.32;7.45;;;3.90;79.90;;;;;;5073738;28;20115;-74
2021/11/23 02:41:19;;;;;;;8.20;6.35;;;3.90;80.10;;;;;;5063886;28;20525;-74
2021/11/23 02:43:47;;;;;;;8.57;5.70;;;3.90;80.00;;;;;;5076249;28;20089;-74
2021/11/23 02:46:14;;;;;;;6.95;5.65;;;3.90;80.00;;;;;;5085335;28;20024;-74
2021/11/23 02:48:41;;;;;;;7.93;5.22;;;3.90;80.10;;;;;;5084626;28;20028;-74
2021/11/23 02:51:17;;;;;;;6.57;5.32;;;3.90;80.10;;;;;;5081592;28;20397;-74
2021/11/23 02:53:45;;;;;;;6.32;5.10;;;3.90;79.80;;;;;;5080495;28;20425;-74
2021/11/23 02:56:11;;;;;;;6.45;5.18;;;3.80;79.80;;;;;;5079807;28;20021;-71
2021/11/23 02:58:38;;;;;;;7.88;5.60;;;3.80;80.00;;;;;;5080112;28;20032;-73
2021/11/23 03:01:07;;;;;;;5.95;4.72;;;3.80;79.80;;;;;;5065846;28;20031;-73
2021/11/23 03:03:33;;;;;;;5.80;4.40;;;3.80;79.80;;;;;;5077020;28;20028;-74
2021/11/23 03:06:00;;;;;;;5.65;4.75;;;3.80;79.60;;;;;;5078971;28;20032;-74
2021/11/23 03:08:25;;;;;;;5.28;4.50;;;3.80;79.40;;;;;;5080935;28;20037;-74
2021/11/23 03:10:52;;;;;;;6.35;4.90;;;3.80;79.30;;;;;;5082242;28;20028;-74
2021/11/23 03:13:18;;;;;;;6.55;5.13;;;3.80;79.30;;;;;;5077285;28;20039;-75
2021/11/23 03:15:44;;;;;;;6.57;4.80;;;3.80;79.30;;;;;;5086000;28;20059;-75
2021/11/23 03:18:11;;;;;;;6.68;5.18;;;3.80;79.10;;;;;;5064676;28;20051;-74
2021/11/23 03:20:37;;;;;;;6.38;4.55;;;3.80;79.10;;;;;;5064632;28;20478;-74
2021/11/23 03:23:05;;;;;;;5.78;4.40;;;3.80;79.10;;;;;;5081501;28;20025;-74
2021/11/23 03:25:31;;;;;;;8.20;4.50;;;3.80;79.30;;;;;;5084896;28;20037;-74
2021/11/23 03:27:57;;;;;;;8.63;4.50;;;3.80;79.40;;;;;;5086853;28;20050;-74
2021/11/23 03:30:29;;;;;;;5.60;4.70;;;3.80;79.30;;;;;;5088937;28;20028;-75
2021/11/23 03:32:55;;;;;;;8.07;6.25;;;3.80;79.20;;;;;;5086328;28;20043;-74
2021/11/23 03:35:26;;;;;;;9.05;6.35;;;3.80;79.10;;;;;;5083429;28;20024;-75
2021/11/23 03:37:54;;;;;;;5.97;4.78;;;3.80;79.00;;;;;;5072599;28;20026;-74
2021/11/23 03:40:22;;;;;;;9.10;6.82;;;3.80;79.10;;;;;;5064746;28;20024;-74
2021/11/23 03:42:49;;;;;;;6.28;5.35;;;3.70;79.20;;;;;;5075127;28;20027;-74
2021/11/23 03:45:15;;;;;;;8.90;5.32;;;3.70;79.30;;;;;;5084564;28;20047;-74
2021/11/23 03:47:40;;;;;;;7.40;5.45;;;3.60;79.40;;;;;;5084875;28;20028;-73
2021/11/23 03:50:09;;;;;;;7.45;5.30;;;3.60;79.50;;;;;;5081718;28;20382;-74
2021/11/23 03:52:36;;;;;;;6.85;5.57;;;3.60;79.60;;;;;;5080363;28;20032;-74
2021/11/23 03:55:03;;;;;;;8.60;5.70;;;3.60;79.80;;;;;;5088276;28;20024;-74
2021/11/23 03:57:29;;;;;;;7.22;5.90;;;3.60;79.80;;;;;;5076383;28;20032;-74
2021/11/23 03:59:54;;;;;;;6.60;5.43;;;3.50;80.00;;;;;;5081666;28;20140;-74
2021/11/23 04:02:23;;;;;;;6.85;5.70;;;3.50;80.10;;;;;;5082629;28;20054;-74
2021/11/23 04:04:49;;;;;;;7.68;5.63;;;3.50;80.30;;;;;;5081548;28;20048;-74
2021/11/23 04:07:15;;;;;;;7.57;5.78;;;3.50;80.40;;;;;;5065160;28;20070;-73
2021/11/23 04:09:41;;;;;;;7.43;5.97;;;3.50;80.20;;;;;;5075583;28;20052;-74
2021/11/23 04:12:08;;;;;;;7.32;5.40;;;3.50;80.30;;;;;;5079529;28;20100;-75
2021/11/23 04:14:34;;;;;;;7.38;5.15;;;3.50;80.30;;;;;;5085592;28;20028;-75
2021/11/23 04:16:59;;;;;;;7.75;5.65;;;3.40;80.30;;;;;;5091905;28;20468;-75
2021/11/23 04:19:26;;;;;;;7.18;5.72;;;3.40;80.40;;;;;;5077626;28;20059;-74
2021/11/23 04:21:51;;;;;;;6.82;5.70;;;3.40;80.50;;;;;;5078857;28;20509;-74
2021/11/23 04:24:17;;;;;;;9.43;5.80;;;3.40;80.60;;;;;;5076689;28;20040;-73
2021/11/23 04:26:43;;;;;;;5.90;4.90;;;3.40;80.50;;;;;;5072192;28;20060;-75
2021/11/23 04:29:08;;;;;;;7.10;5.00;;;3.30;80.20;;;;;;5082747;28;20048;-74
2021/11/23 04:31:34;;;;;;;7.93;5.70;;;3.30;80.20;;;;;;5090705;28;20381;-74
2021/11/23 04:34:00;;;;;;;6.13;5.25;;;3.30;80.10;;;;;;5081884;28;20126;-73
2021/11/23 04:36:26;;;;;;;7.82;5.75;;;3.30;80.10;;;;;;5083395;28;20039;-74
2021/11/23 04:38:51;;;;;;;8.55;6.50;;;3.30;80.20;;;;;;5074383;28;20024;-74
2021/11/23 04:41:17;;;;;;;8.10;6.60;;;3.30;80.30;;;;;;5079885;28;20021;-74
2021/11/23 04:43:43;;;;;;;9.73;6.38;;;3.30;80.30;;;;;;5085061;28;20032;-74
2021/11/23 04:46:09;;;;;;;9.32;6.80;;;3.30;80.40;;;;;;5063392;28;20107;-74
2021/11/23 04:48:34;;;;;;;9.77;6.90;;;3.20;80.30;;;;;;5076164;28;20031;-74
2021/11/23 04:51:01;;;;;;;9.68;7.05;;;3.20;80.30;;;;;;5082753;28;20033;-76
2021/11/23 04:53:26;;;;;;;9.95;6.65;;;3.20;80.50;;;;;;5077255;28;20494;-75
2021/11/23 04:55:52;;;;;;;10.20;6.13;;;3.20;80.50;;;;;;5083751;28;20059;-75
2021/11/23 04:58:18;;;;;;;8.35;6.30;;;3.20;80.40;;;;;;5091524;28;20021;-73
2021/11/23 05:00:44;;;;;;;10.02;6.80;;;3.20;80.90;;;;;;5089558;28;20032;-74
2021/11/23 05:03:09;;;;;;;8.98;6.05;;;3.20;80.20;;;;;;5084653;28;20029;-75
2021/11/23 05:05:35;;;;;;;8.27;5.63;;;3.20;80.00;;;;;;5083362;28;20043;-74
2021/11/23 05:08:01;;;;;;;8.23;5.95;;;3.20;79.90;;;;;;5084891;28;20020;-82
2021/11/23 05:10:27;;;;;;;6.63;5.38;;;3.20;79.80;;;;;;5079569;28;20103;-79
2021/11/23 05:12:53;;;;;;;6.10;4.97;;;3.20;79.70;;;;;;5094552;28;20028;-83
2021/11/23 05:15:19;;;;;;;5.57;4.88;;;3.20;79.60;;;;;;5090288;28;20119;-81
2021/11/23 05:17:45;;;;;;;8.07;4.80;;;3.20;79.20;;;;;;5100236;28;20036;-80
2021/11/23 05:20:11;;;;;;;7.07;4.43;;;3.10;79.00;;;;;;5099688;28;20032;-82
2021/11/23 05:22:38;;;;;;;8.27;5.38;;;3.10;78.70;;;;;;5094534;28;20059;-82
2021/11/23 05:25:05;;;;;;;6.70;4.50;;;3.10;78.40;;;;;;5071368;28;20085;-82
2021/11/23 05:27:32;;;;;;;8.85;4.72;;;3.10;78.30;;;;;;5062164;28;20371;-83
2021/11/23 05:29:59;;;;;;;6.72;4.57;;;3.10;78.10;;;;;;5084465;28;20032;-84
2021/11/23 05:32:25;;;;;;;7.03;4.57;;;3.10;78.00;;;;;;5074360;28;20589;-82
2021/11/23 05:34:51;;;;;;;5.82;4.70;;;3.20;77.80;;;;;;5083497;28;20074;-83
2021/11/23 05:37:17;;;;;;;6.78;4.60;;;3.10;77.60;;;;;;5093064;28;20032;-86
2021/11/23 05:39:42;;;;;;;5.95;4.40;;;3.10;77.40;;;;;;5081600;28;20024;-80
2021/11/23 05:42:08;;;;;;;6.32;4.35;;;3.10;76.90;;;;;;5079953;28;20021;-82
2021/11/23 05:44:34;;;;;;;7.72;4.72;;;3.10;76.70;;;;;;5070426;28;20100;-80
2021/11/23 05:47:00;;;;;;;7.20;4.68;;;3.10;76.60;;;;;;5074726;28;20069;-84
2021/11/23 05:49:26;;;;;;;6.35;4.63;;;3.10;76.60;;;;;;5071039;28;20127;-80
2021/11/23 05:51:54;;;;;;;5.32;4.32;;;3.10;76.30;;;;;;5089374;28;20024;-81
2021/11/23 05:54:20;;;;;;;5.45;4.20;;;3.10;76.30;;;;;;5084829;28;20052;-80
2021/11/23 05:56:47;;;;;;;6.32;4.50;;;3.10;76.00;;;;;;5083172;28;20079;-82
2021/11/23 05:59:13;;;;;;;5.70;4.15;;;3.10;75.80;;;;;;5065536;28;20078;-82
2021/11/23 06:01:39;;;;;;;7.25;4.32;;;3.10;75.70;;;;;;5067218;28;20111;-79
2021/11/23 06:04:05;;;;;;;6.50;4.80;;;3.10;75.20;;;;;;5069366;28;20044;-80
2021/11/23 06:06:31;;;;;;;4.75;4.07;;;3.20;74.80;;;;;;5084603;28;20028;-79
2021/11/23 06:08:56;;;;;;;5.28;3.75;;;3.10;74.30;;;;;;5067274;28;20046;-77
2021/11/23 06:11:22;;;;;;;6.43;4.43;;;3.20;74.10;;;;;;5091596;28;20020;-81
2021/11/23 06:13:48;;;;;;;6.40;4.70;;;3.20;74.10;;;;;;5104845;28;20020;-80
2021/11/23 06:16:15;;;;;;;7.32;4.90;;;3.20;74.20;;;;;;5082943;28;20032;-77
2021/11/23 06:18:41;;;;;;;6.68;4.70;;;3.20;74.20;;;;;;5088060;28;20040;-78
2021/11/23 06:21:08;;;;;;;8.05;4.75;;;3.20;74.30;;;;;;5078446;28;20027;-74
2021/11/23 06:23:35;;;;;;;10.88;6.70;;;3.20;74.20;;;;;;5075556;28;20538;-76
2021/11/23 06:26:02;;;;;;;8.38;6.32;;;3.20;74.20;;;;;;5076875;28;20028;-81
2021/11/23 06:28:29;;;;;;;7.53;5.30;;;3.20;74.20;;;;;;5073041;28;20040;-75
2021/11/23 06:30:55;;;;;;;6.80;4.50;;;3.20;74.10;;;;;;5086253;28;20024;-74
2021/11/23 06:33:21;;;;;;;5.95;4.30;;;3.20;73.90;;;;;;5069037;28;20458;-78
2021/11/23 06:35:47;;;;;;;5.53;4.07;;;3.20;73.80;;;;;;5091438;28;20024;-79
2021/11/23 06:38:13;;;;;;;6.90;4.90;;;3.20;73.60;;;;;;5067401;28;20020;-80
2021/11/23 06:40:39;;;;;;;6.05;4.32;;;3.10;73.50;;;;;;5076211;28;20031;-79
2021/11/23 06:43:06;;;;;;;7.40;4.05;;;3.10;73.70;;;;;;5086091;28;20052;-78
2021/11/23 06:45:33;;;;;;;5.72;4.22;;;3.20;73.80;;;;;;5071330;28;20674;-70
2021/11/23 06:47:59;;;;;;;5.95;4.60;;;3.30;73.40;;;;;;5089341;28;20058;-79
2021/11/23 06:50:32;;;;;;;6.65;3.60;;;3.30;73.40;;;;;;5086370;28;20039;-79
2021/11/23 06:53:01;;;;;;;6.53;4.00;;;3.40;73.10;;;;;;5087433;28;20101;-79
2021/11/23 06:55:27;;;;;;;5.00;3.70;;;3.40;72.60;;;;;;5084660;28;20032;-78
2021/11/23 06:57:53;;;;;;;5.72;4.07;;;3.40;72.50;;;;;;5084512;28;20478;-79
2021/11/23 07:00:19;;;;;;;6.90;4.43;;;3.40;72.40;;;;;;5089139;28;20527;-79
2021/11/23 07:02:45;;;;;;;5.65;3.55;;;3.40;72.30;;;;;;5060700;28;20036;-81
2021/11/23 07:05:11;;;;;;;4.85;3.20;;;3.50;71.90;;;;;;5068121;28;20036;-80
2021/11/23 07:07:37;;;;;;;4.45;3.45;;;3.60;71.30;;;;;;5087591;28;20033;-79
2021/11/23 07:10:06;;;;;;;4.10;3.38;;;3.60;70.60;;;;;;5082941;28;20024;-78
2021/11/23 07:12:37;;;;;;;5.80;4.07;;;3.60;70.40;;;;;;5090799;28;20051;-75
2021/11/23 07:15:06;;;;;;;6.00;3.60;;;3.70;70.20;;;;;;5070688;28;20335;-77
2021/11/23 07:17:32;;;;;;;4.60;3.25;;;3.70;70.30;;;;;;5076275;28;20147;-77
2021/11/23 07:19:58;;;;;;;4.70;3.10;;;3.80;70.20;;;;;;5075031;28;20105;-68
2021/11/23 07:22:23;;;;;;;4.88;3.17;;;3.80;69.90;;;;;;5069280;28;20428;-79
2021/11/23 07:24:49;;;;;;;4.28;3.25;;;3.80;69.40;;;;;;5079009;28;20072;-76
2021/11/23 07:27:16;;;;;;;4.45;3.20;;;3.80;69.30;;;;;;5060845;28;20116;-84
2021/11/23 07:29:42;;;;;;;4.75;3.30;;;3.80;69.30;;;;;;5086310;28;20059;-78
2021/11/23 07:32:10;;;;;;;6.03;3.45;;;3.80;69.20;;;;;;5086678;28;20056;-77
2021/11/23 07:34:40;;;;;;;5.00;2.80;;;3.80;68.60;;;;;;5076614;28;20550;-77
2021/11/23 07:37:06;;;;;;;4.70;3.30;;;3.70;68.00;;;;;;5091986;28;20481;-79
2021/11/23 07:39:32;;;;;;;5.13;3.47;;;3.70;67.70;;;;;;5063603;28;20505;-80
2021/11/23 07:41:58;;;;;;;7.05;4.07;;;3.60;67.50;;;;;;5092317;28;20028;-79
2021/11/23 07:44:24;;;;;;;5.38;3.70;;;3.60;67.50;;;;;;5074806;28;20028;-81
2021/11/23 07:46:50;;;;;;;4.68;3.28;;;3.70;67.70;;;;;;5075940;28;20020;-82
2021/11/23 07:49:16;;;;;;;4.38;3.38;;;3.70;67.80;;;;;;5076196;28;20039;-81
2021/11/23 07:51:42;;;;;;;5.38;3.40;;;3.80;67.60;;;;;;5094910;28;20083;-80
2021/11/23 07:54:11;;;;;;;6.22;3.33;;;3.70;67.20;;;;;;5076369;28;20055;-81
2021/11/23 07:56:37;;;;;;;4.53;3.38;;;3.80;67.10;;;;;;5095187;28;20069;-82
2021/11/23 07:59:03;;;;;;;4.15;3.15;;;4.00;66.70;;;;;;5082160;28;20463;-82
2021/11/23 08:01:29;;;;;;;4.93;3.70;;;4.10;66.20;;;;;;5089887;28;20534;-81
2021/11/23 08:03:54;;;;;;;4.85;3.38;;;4.10;65.70;;;;;;5103653;28;20078;-82
2021/11/23 08:06:20;;;;;;;5.22;3.30;;;4.20;65.50;;;;;;5081685;28;20028;-81
2021/11/23 08:08:48;;;;;;;5.22;3.90;;;4.30;65.40;;;;;;5078505;28;20028;-80
2021/11/23 08:11:14;;;;;;;5.78;3.92;;;4.50;65.50;;;;;;5075690;28;20178;-82
2021/11/23 08:13:40;;;;;;;7.28;3.80;;;4.70;65.20;;;;;;5094746;28;20032;-83
2021/11/23 08:16:06;;;;;;;5.95;3.20;;;4.80;64.70;;;;;;5094276;28;20478;-80
2021/11/23 08:18:34;;;;;;;5.22;3.63;;;4.80;64.30;;;;;;5072584;28;20052;-82
2021/11/23 08:21:01;;;;;;;6.35;4.03;;;4.80;63.90;;;;;;5073541;28;20523;-80
2021/11/23 08:23:27;;;;;;;6.32;4.00;;;4.90;64.00;;;;;;5073387;28;20444;-82
2021/11/23 08:25:54;;;;;;;6.50;4.13;;;4.90;63.80;;;;;;5073734;28;20024;-83
2021/11/23 08:28:22;;;;;;;5.40;3.53;;;5.00;63.40;;;;;;5072285;28;20410;-81
2021/11/23 08:30:48;;;;;;;5.45;3.75;;;5.20;62.80;;;;;;5072337;28;20111;-82
2021/11/23 08:33:14;;;;;;;6.97;4.13;;;5.20;62.30;;;;;;5072263;28;20435;-81
2021/11/23 08:35:40;;;;;;;5.45;4.05;;;5.20;62.20;;;;;;5073864;28;20021;-80
2021/11/23 08:38:06;;;;;;;6.65;4.60;;;5.30;61.70;;;;;;5073602;28;20051;-81
2021/11/23 08:40:31;;;;;;;8.85;5.30;;;5.30;61.80;;;;;;5072033;28;20083;-81
2021/11/23 08:42:58;;;;;;;9.90;7.30;;;5.50;61.50;;;;;;5073888;28;20025;-83
2021/11/23 08:45:24;;;;;;;8.75;5.32;;;5.60;61.20;;;;;;5072150;28;20132;-83
2021/11/23 08:47:50;;;;;;;10.18;5.63;;;5.90;61.70;;;;;;5072216;28;20064;-81
2021/11/23 08:50:16;;;;;;;6.60;4.88;;;6.30;61.00;;;;;;5071818;28;20078;-78
2021/11/23 08:52:42;;;;;;;9.73;5.55;;;7.10;61.30;;;;;;5073428;28;20147;-81
2021/11/23 08:55:08;;;;;;;7.00;4.53;;;8.30;60.10;;;;;;5085605;28;20029;-81
2021/11/23 08:57:34;;;;;;;7.72;3.67;;;9.40;58.30;;;;;;5082021;28;20052;-82
2021/11/23 09:00:19;;;;;;;4.93;3.10;;;10.40;56.00;;;;;;5074191;28;20029;-81
2021/11/23 09:02:49;;;;;;;7.88;4.60;;;11.30;53.80;;;;;;5072159;28;20036;-80
2021/11/23 09:05:16;;;;;;;15.93;7.50;;;12.20;52.00;;;;;;5073071;28;20483;-81
2021/11/23 09:07:42;;;;;;;7.35;4.50;;;12.80;49.50;;;;;;5072291;28;20119;-80
2021/11/23 09:10:16;;;;;;;6.55;3.00;;;13.10;48.20;;;;;;5073384;28;20027;-80
2021/11/23 09:12:42;;;;;;;5.25;2.78;;;13.40;46.80;;;;;;5071771;28;20028;-80
2021/11/23 09:15:08;;;;;;;4.88;2.70;;;13.60;46.30;;;;;;5073144;28;20036;-80
2021/11/23 09:17:34;;;;;;;4.43;2.55;;;13.80;45.60;;;;;;5078060;28;20048;-79
2021/11/23 09:20:00;;;;;;;4.60;2.80;;;13.90;44.80;;;;;;5076040;28;20119;-80
2021/11/23 09:22:27;;;;;;;4.32;3.00;;;13.80;44.30;;;;;;5081321;28;20028;-81
2021/11/23 09:24:53;;;;;;;4.57;2.90;;;13.90;43.90;;;;;;5097416;28;20032;-78
2021/11/23 09:27:18;;;;;;;4.50;3.13;;;14.00;43.90;;;;;;5094495;28;20024;-80
2021/11/23 09:29:44;;;;;;;4.65;2.97;;;14.10;43.60;;;;;;5075926;28;20021;-80
2021/11/23 09:32:12;;;;;;;4.72;2.92;;;14.20;43.50;;;;;;5074900;28;20382;-81
2021/11/23 09:34:39;;;;;;;6.43;3.00;;;14.20;42.70;;;;;;5093155;28;20020;-80
2021/11/23 09:37:04;;;;;;;5.75;4.00;;;14.40;42.50;;;;;;5075032;28;20028;-81
2021/11/23 09:39:30;;;;;;;5.10;3.38;;;14.50;42.30;;;;;;5093756;28;20481;-80
2021/11/23 09:41:56;;;;;;;4.55;2.72;;;14.70;42.30;;;;;;5097222;28;20035;-79
2021/11/23 09:44:23;;;;;;;4.55;2.85;;;14.70;41.90;;;;;;5096604;28;20035;-79
2021/11/23 09:46:49;;;;;;;3.70;2.53;;;14.60;41.70;;;;;;5078671;28;20056;-80
2021/11/23 09:49:15;;;;;;;5.00;3.10;;;14.70;41.80;;;;;;5086849;28;20032;-80
2021/11/23 09:51:41;;;;;;;4.32;2.65;;;14.90;41.60;;;;;;5108327;28;20024;-80
2021/11/23 09:54:09;;;;;;;4.75;2.78;;;15.20;41.40;;;;;;5082413;28;20093;-80
2021/11/23 09:56:36;;;;;;;6.00;2.80;;;15.40;40.90;;;;;;5096721;28;20059;-81
2021/11/23 09:59:05;;;;;;;6.25;3.00;;;15.60;40.50;;;;;;5078011;28;20386;-80
2021/11/23 10:01:46;;;;;;;4.40;2.78;;;15.80;40.20;;;;;;5078818;28;20470;-79
2021/11/23 10:04:12;;;;;;;4.93;2.58;;;15.70;39.70;;;;;;5078483;28;20225;-80
2021/11/23 10:06:53;;;;;;;5.00;2.50;;;15.80;40.30;;;;;;5096428;28;20111;-79
2021/11/23 10:09:42;;;;;;;4.47;2.40;;;15.70;39.20;;;;;;5078053;28;20412;-79
2021/11/23 10:12:12;;;;;;;3.40;2.30;;;15.60;38.80;;;;;;5078244;28;20053;-79
2021/11/23 10:14:39;;;;;;;4.68;2.65;;;15.50;38.60;;;;;;5096385;28;20107;-80
2021/11/23 10:17:24;;;;;;;5.25;2.50;;;15.40;38.70;;;;;;5077872;28;20158;-79
2021/11/23 10:19:49;;;;;;;4.45;2.72;;;15.40;38.20;;;;;;5078057;28;20063;-78
2021/11/23 10:22:36;;;;;;;3.17;2.10;;;15.30;38.60;;;;;;5077867;28;20067;-80
2021/11/23 10:25:07;;;;;;;3.15;1.95;;;15.30;38.10;;;;;;5077571;28;20474;-81
2021/11/23 10:27:40;;;;;;;5.80;3.10;;;15.00;38.30;;;;;;5078062;28;20035;-80
2021/11/23 10:30:08;;;;;;;5.72;2.50;;;14.90;38.40;;;;;;5077763;28;20032;-80
2021/11/23 10:32:46;;;;;;;7.10;3.88;;;14.90;38.50;;;;;;5077606;28;20382;-80
2021/11/23 10:35:20;;;;;;;4.30;2.50;;;15.20;38.40;;;;;;5077695;28;20032;-80
2021/11/23 10:37:46;;;;;;;22.30;4.68;;;15.30;38.10;;;;;;5095795;28;20024;-80
2021/11/23 10:40:27;;;;;;;8.27;2.60;;;15.20;38.10;;;;;;5097177;28;20024;-80
2021/11/23 10:42:58;;;;;;;3.70;2.00;;;15.10;38.00;;;;;;5078001;28;20062;-80
2021/11/23 10:45:24;;;;;;;4.85;2.25;;;15.00;38.00;;;;;;5086625;28;20032;-80
2021/11/23 10:47:50;;;;;;;3.95;2.40;;;15.00;38.10;;;;;;5085860;28;20028;-80
2021/11/23 10:50:20;;;;;;;3.60;2.20;;;15.00;38.10;;;;;;5085557;28;20095;-81
2021/11/23 10:52:50;;;;;;;4.40;2.80;;;15.00;38.00;;;;;;5095936;28;20070;-81
2021/11/23 10:55:32;;;;;;;4.45;2.33;;;14.80;37.90;;;;;;5077200;28;20081;-78
2021/11/23 10:58:00;;;;;;;2.97;2.33;;;14.80;38.20;;;;;;5077779;28;20378;-80
2021/11/23 11:00:30;;;;;;;3.05;2.20;;;14.70;38.30;;;;;;5076954;28;20114;-79
2021/11/23 11:03:03;;;;;;;4.30;2.50;;;14.60;38.60;;;;;;5095134;28;20481;-81
2021/11/23 11:05:35;;;;;;;8.18;5.60;;;14.70;38.50;;;;;;5077096;28;20036;-80
2021/11/23 11:08:02;;;;;;;3.38;2.42;;;14.70;38.60;;;;;;5076696;28;20062;-80
2021/11/23 11:10:30;;;;;;;4.28;2.58;;;14.70;38.60;;;;;;5095341;28;20024;-79
2021/11/23 11:12:56;;;;;;;4.53;2.58;;;14.80;38.40;;;;;;5077133;28;20440;-80
2021/11/23 11:15:50;;;;;;;5.15;2.65;;;14.80;38.30;;;;;;5076844;28;20028;-79
2021/11/23 11:18:17;;;;;;;3.78;2.75;;;15.00;38.10;;;;;;5092721;28;20044;-78
2021/11/23 11:20:58;;;;;;;5.38;3.17;;;14.90;38.30;;;;;;5095261;28;20029;-79
2021/11/23 11:23:25;;;;;;;4.55;2.40;;;14.70;38.10;;;;;;5077045;28;20416;-80
2021/11/23 11:26:02;;;;;;;3.60;2.75;;;14.70;38.30;;;;;;5094578;28;20048;-79
2021/11/23 11:28:39;;;;;;;3.75;2.80;;;14.70;38.20;;;;;;5076939;28;20028;-80
2021/11/23 11:31:07;;;;;;;3.70;2.50;;;14.80;38.10;;;;;;5077662;28;20031;-79
2021/11/23 11:33:34;;;;;;;3.20;2.40;;;14.80;38.40;;;;;;5094939;28;20103;-79
2021/11/23 11:36:00;;;;;;;4.13;2.90;;;14.70;38.10;;;;;;5076755;28;20500;-80
2021/11/23 11:38:26;;;;;;;4.88;3.03;;;14.50;38.00;;;;;;5077176;28;20432;-80
2021/11/23 11:40:57;;;;;;;4.03;2.88;;;14.40;38.30;;;;;;5083890;28;20028;-79
2021/11/23 11:43:37;;;;;;;5.03;2.65;;;14.30;38.40;;;;;;5082785;28;20028;-80
2021/11/23 11:46:04;;;;;;;4.50;2.50;;;14.40;38.50;;;;;;5095151;28;20023;-80
2021/11/23 11:48:33;;;;;;;4.53;2.80;;;14.40;38.70;;;;;;5076276;28;20032;-80
2021/11/23 11:51:13;;;;;;;4.18;2.60;;;14.20;38.10;;;;;;5076279;28;20070;-80
2021/11/23 11:53:47;;;;;;;4.47;2.65;;;14.00;38.50;;;;;;5076303;28;20397;-79
2021/11/23 11:56:39;;;;;;;5.40;2.92;;;13.90;39.00;;;;;;5076521;28;20114;-79
2021/11/23 11:59:17;;;;;;;4.05;2.67;;;13.70;39.00;;;;;;5084449;28;20115;-80
2021/11/23 12:01:59;;;;;;;4.38;3.00;;;13.10;39.70;;;;;;5075584;28;20123;-80
2021/11/23 12:04:27;;;;;;;4.65;3.10;;;12.50;40.10;;;;;;5094135;28;20032;-80
2021/11/23 12:06:56;;;;;;;4.68;3.17;;;11.90;40.60;;;;;;5076420;28;20363;-80
2021/11/23 12:09:47;;;;;;;5.97;3.30;;;11.40;41.30;;;;;;5076313;28;20032;-80
2021/11/23 12:12:13;;;;;;;5.00;3.13;;;11.50;42.00;;;;;;5075703;28;20066;-79
2021/11/23 12:14:56;;;;;;;5.00;3.13;;;11.60;41.90;;;;;;5076366;28;20028;-79
2021/11/23 12:17:34;;;;;;;5.15;3.65;;;11.70;41.80;;;;;;5093880;28;20039;-79
2021/11/23 12:20:18;;;;;;;8.68;3.65;;;11.70;41.80;;;;;;5094332;28;20034;-79
2021/11/23 12:22:47;;;;;;;4.55;3.20;;;11.60;41.90;;;;;;5075773;28;20030;-80
2021/11/23 12:25:19;;;;;;;4.13;2.95;;;11.50;42.00;;;;;;5093853;28;20390;-79
2021/11/23 12:27:46;;;;;;;5.53;2.90;;;11.30;42.10;;;;;;5076050;28;20024;-80
2021/11/23 12:30:14;;;;;;;5.22;3.40;;;10.70;42.40;;;;;;5076537;28;20436;-80
2021/11/23 12:32:40;;;;;;;5.65;3.17;;;10.00;43.30;;;;;;5076155;28;20110;-79
2021/11/23 12:35:08;;;;;;;4.30;3.08;;;9.40;44.00;;;;;;5078551;28;20366;-80
2021/11/23 12:37:35;;;;;;;5.70;3.60;;;8.90;45.20;;;;;;5084283;28;20024;-79
2021/11/23 12:40:20;;;;;;;5.15;3.50;;;8.40;46.20;;;;;;5079254;28;20028;-80
2021/11/23 12:42:53;;;;;;;5.55;4.05;;;7.90;47.30;;;;;;5076227;28;20122;-80
2021/11/23 12:45:37;;;;;;;6.03;4.13;;;7.50;48.00;;;;;;5094511;28;20067;-80
2021/11/23 12:48:10;;;;;;;11.45;7.47;;;7.30;49.00;;;;;;5094066;28;20082;-79
2021/11/23 12:50:37;;;;;;;10.35;6.75;;;7.30;49.30;;;;;;5094411;28;20055;-79
2021/11/23 12:53:08;;;;;;;9.90;7.20;;;7.00;49.60;;;;;;5076051;28;20036;-80
2021/11/23 12:55:37;;;;;;;7.53;5.30;;;6.80;50.20;;;;;;5094215;28;20469;-80